Rarotonga (NCRG)

Aerodrome — Elev 19
Cook Islands
S021.12.09.860 W159.48.20.000
Loading chart...

Current Weather

NCRG 220900Z 11005KT 9999 SCT020 22/17 Q1017

Published 7 minutes ago

Airport Activity

Loading chart...
Loading chart...

Standard ATC Positions

CallsignRadio Name / Freq / Voice Room / TypeFrequencyVoice RoomType
NZZO_FSS Auckland Radio
128.900
nzzo_fss
128.900nzzo_fss
NCRG_APP Rarotonga Control
118.100
ncrg_app
118.100ncrg_app
UNICOM NZZO UNICOM
122.800
unicom_nzzo
122.800unicom_nzzo

Event ATC Positions

This airport has control positions that are designated for use only during major events.
These positions should not be staffed unless specifically activated by the VATNZ Airspace Director as part of an official VATNZ event.

CallsignRadio Name / Freq / Voice Room / TypeFrequencyVoice RoomType
NSFA_CTR Faleolo Control
123.800
nsfa_ctr
123.800nsfa_ctr